createdAt,value
2023-02-21T00:00:05.039Z,12.70
2023-02-21T00:02:59.052Z,10.40
2023-02-21T00:05:45.274Z,10.05
2023-02-21T00:08:31.517Z,9.40
2023-02-21T00:11:17.593Z,10.13
2023-02-21T00:14:03.601Z,13.45
2023-02-21T00:16:49.549Z,14.43
2023-02-21T00:19:35.747Z,11.38
2023-02-21T00:22:21.752Z,13.68
2023-02-21T00:25:08.323Z,12.48
2023-02-21T00:27:54.411Z,8.75
2023-02-21T00:30:40.697Z,12.98
2023-02-21T00:33:26.598Z,12.48
2023-02-21T00:36:12.668Z,11.00
2023-02-21T00:38:58.806Z,15.07
2023-02-21T00:41:45.125Z,14.90
2023-02-21T00:44:31.410Z,13.63
2023-02-21T00:47:18.820Z,13.80
2023-02-21T00:50:05.291Z,14.57
2023-02-21T00:52:51.281Z,15.50
2023-02-21T00:55:37.218Z,12.15
2023-02-21T00:58:27.178Z,16.02
2023-02-21T01:01:13.784Z,14.30
2023-02-21T01:04:00.438Z,13.98
2023-02-21T01:06:51.805Z,14.40
2023-02-21T01:09:37.889Z,13.07
2023-02-21T01:12:24.531Z,14.15
2023-02-21T01:15:10.443Z,15.07
2023-02-21T01:17:56.457Z,14.50
2023-02-21T01:20:42.524Z,13.45
2023-02-21T01:23:28.455Z,14.30
2023-02-21T01:26:14.430Z,16.38
2023-02-21T01:29:00.365Z,17.92
2023-02-21T01:31:46.300Z,16.98
2023-02-21T01:34:34.660Z,20.75
2023-02-21T01:37:23.184Z,19.42
2023-02-21T01:40:09.812Z,19.10
2023-02-21T01:42:56.384Z,14.60
2023-02-21T01:45:42.439Z,13.70
2023-02-21T01:48:36.736Z,14.18
2023-02-21T01:51:25.879Z,15.07
2023-02-21T01:56:59.486Z,12.52
2023-02-21T01:59:47.357Z,14.55
2023-02-21T02:02:55.443Z,13.65
2023-02-21T02:05:42.546Z,15.73
2023-02-21T02:08:29.333Z,14.20
2023-02-21T02:12:07.184Z,12.63
2023-02-21T02:15:09.079Z,17.75
2023-02-21T02:18:21.350Z,17.73
2023-02-21T02:21:32.274Z,14.52
2023-02-21T02:24:23.603Z,14.10
2023-02-21T02:26:54.063Z,13.20
2023-02-21T02:30:17.053Z,15.65
2023-02-21T02:33:21.208Z,15.18
2023-02-21T02:36:00.469Z,13.13
2023-02-21T02:39:00.588Z,16.00
2023-02-21T02:41:59.684Z,20.80
2023-02-21T02:44:32.832Z,13.75
2023-02-21T02:47:05.610Z,12.02
2023-02-21T02:49:37.817Z,12.35
2023-02-21T02:52:08.370Z,16.05
2023-02-21T02:54:36.405Z,16.30
2023-02-21T02:57:10.565Z,14.38
2023-02-21T02:59:45.426Z,22.08
2023-02-21T03:02:49.081Z,16.10
2023-02-21T03:05:49.403Z,16.35
2023-02-21T03:08:40.527Z,14.52
2023-02-21T03:11:24.903Z,14.43
2023-02-21T03:14:01.819Z,18.85
2023-02-21T03:16:51.857Z,14.73
2023-02-21T03:19:39.515Z,18.67
2023-02-21T03:22:15.593Z,15.20
2023-02-21T03:24:47.077Z,14.73
2023-02-21T03:27:17.437Z,17.88
2023-02-21T03:29:48.670Z,17.73
2023-02-21T03:32:25.280Z,16.23
2023-02-21T03:34:54.381Z,16.85
2023-02-21T03:37:45.936Z,15.60
2023-02-21T03:40:28.854Z,13.98
2023-02-21T03:43:01.322Z,15.43
2023-02-21T03:45:34.319Z,18.95
2023-02-21T03:48:09.148Z,18.05
2023-02-21T03:50:39.076Z,15.02
2023-02-21T03:53:09.542Z,16.77
2023-02-21T03:55:38.534Z,14.02
2023-02-21T03:58:12.166Z,17.40
2023-02-21T04:00:39.982Z,13.73
2023-02-21T04:03:08.227Z,17.48
2023-02-21T04:05:41.996Z,22.63
2023-02-21T04:08:11.192Z,15.98
2023-02-21T04:10:50.462Z,16.70
2023-02-21T04:13:21.206Z,15.15
2023-02-21T04:15:50.664Z,16.95
2023-02-21T04:18:18.434Z,17.40
2023-02-21T04:20:50.755Z,16.42
2023-02-21T04:23:21.668Z,14.95
2023-02-21T04:25:50.077Z,16.75
2023-02-21T04:28:24.970Z,17.80
2023-02-21T04:30:52.590Z,18.10
2023-02-21T04:33:21.254Z,13.52
2023-02-21T04:35:49.264Z,20.25
2023-02-21T04:38:24.974Z,16.58
2023-02-21T04:40:53.180Z,15.93
2023-02-21T04:43:21.818Z,14.27
2023-02-21T04:45:50.252Z,16.08
2023-02-21T04:48:18.566Z,13.18
2023-02-21T04:50:46.697Z,18.50
2023-02-21T04:53:15.419Z,16.90
2023-02-21T04:55:43.094Z,12.38
2023-02-21T04:58:10.830Z,16.73
2023-02-21T05:00:38.443Z,20.42
2023-02-21T05:03:05.988Z,14.57
2023-02-21T05:05:33.606Z,19.58
2023-02-21T05:08:01.194Z,14.57
2023-02-21T05:10:43.584Z,16.70
2023-02-21T05:13:14.008Z,10.77
2023-02-21T05:15:41.683Z,16.92
2023-02-21T05:18:09.361Z,16.13
2023-02-21T05:20:36.911Z,12.52
2023-02-21T05:23:13.123Z,13.30
2023-02-21T05:25:41.650Z,14.77
2023-02-21T05:28:09.520Z,16.25
2023-02-21T05:30:37.149Z,24.70
2023-02-21T05:33:04.756Z,10.60
2023-02-21T05:35:32.477Z,12.45
2023-02-21T05:38:00.120Z,13.02
2023-02-21T05:40:27.748Z,19.65
2023-02-21T05:42:55.338Z,12.38
2023-02-21T05:45:22.980Z,8.88
2023-02-21T05:47:50.509Z,9.90
2023-02-21T05:50:18.279Z,13.38
2023-02-21T05:52:46.004Z,15.15
2023-02-21T05:55:13.571Z,11.68
2023-02-21T05:57:41.159Z,15.10
2023-02-21T06:00:26.599Z,13.07
2023-02-21T06:02:54.879Z,14.85
2023-02-21T06:05:23.821Z,19.53
2023-02-21T06:07:51.837Z,14.13
2023-02-21T06:10:20.510Z,12.82
2023-02-21T06:12:48.316Z,13.55
2023-02-21T06:15:16.735Z,14.30
2023-02-21T06:17:44.357Z,16.40
2023-02-21T06:20:14.962Z,18.08
2023-02-21T06:22:43.332Z,15.45
2023-02-21T06:25:11.554Z,14.25
2023-02-21T06:27:39.658Z,19.10
2023-02-21T06:30:07.891Z,22.45
2023-02-21T06:32:35.687Z,14.17
2023-02-21T06:35:05.221Z,14.45
2023-02-21T06:37:33.891Z,15.45
2023-02-21T06:40:01.541Z,16.10
2023-02-21T06:42:33.560Z,15.30
2023-02-21T06:45:01.333Z,19.73
2023-02-21T06:47:29.076Z,14.98
2023-02-21T06:49:56.667Z,18.20
2023-02-21T06:52:24.258Z,15.77
2023-02-21T06:54:52.517Z,14.27
2023-02-21T06:57:20.099Z,19.47
2023-02-21T06:59:47.740Z,20.75
2023-02-21T07:02:19.997Z,21.40
2023-02-21T07:04:48.757Z,23.65
2023-02-21T07:07:16.469Z,26.75
2023-02-21T07:09:43.996Z,18.15
2023-02-21T07:12:11.704Z,21.15
2023-02-21T07:14:39.444Z,28.65
2023-02-21T07:17:07.165Z,18.63
2023-02-21T07:19:34.738Z,21.10
2023-02-21T07:22:02.360Z,29.40
2023-02-21T07:24:30.062Z,22.90
2023-02-21T07:26:57.767Z,19.10
2023-02-21T07:29:25.834Z,35.83
2023-02-21T07:31:53.678Z,32.58
2023-02-21T07:34:22.987Z,29.98
2023-02-21T07:39:18.522Z,23.42
2023-02-21T07:41:46.216Z,17.13
2023-02-21T07:44:23.393Z,18.90
2023-02-21T07:46:51.059Z,21.88
2023-02-21T07:49:18.807Z,19.40
2023-02-21T07:51:46.429Z,21.63
2023-02-21T07:54:14.068Z,25.55
2023-02-21T07:56:47.199Z,18.92
2023-02-21T07:59:15.677Z,24.70
2023-02-21T08:01:43.613Z,38.00
2023-02-21T08:04:11.449Z,33.50
2023-02-21T08:06:39.215Z,25.77
2023-02-21T08:09:06.799Z,18.55
2023-02-21T08:11:36.802Z,16.85
2023-02-21T08:14:05.215Z,25.83
2023-02-21T08:16:34.890Z,20.45
2023-02-21T08:19:02.785Z,18.65
2023-02-21T08:21:30.417Z,20.15
2023-02-21T08:23:57.945Z,14.23
2023-02-21T08:26:25.795Z,12.75
2023-02-21T08:28:53.363Z,17.55
2023-02-21T08:31:21.228Z,16.85
2023-02-21T08:33:51.791Z,13.55
2023-02-21T08:36:19.420Z,11.32
2023-02-21T08:38:47.382Z,16.95
2023-02-21T08:41:16.227Z,21.40
2023-02-21T08:43:43.998Z,13.27
2023-02-21T08:46:11.712Z,19.20
2023-02-21T08:48:39.354Z,15.60
2023-02-21T08:51:07.034Z,11.20
2023-02-21T08:53:34.551Z,16.50
2023-02-21T08:56:02.139Z,11.00
2023-02-21T08:58:29.916Z,12.07
2023-02-21T09:00:57.657Z,13.10
2023-02-21T09:03:25.244Z,19.48
2023-02-21T09:05:52.777Z,15.60
2023-02-21T09:08:22.078Z,13.10
2023-02-21T09:10:49.739Z,11.40
2023-02-21T09:13:17.366Z,15.57
2023-02-21T09:15:45.204Z,14.85
2023-02-21T09:18:13.522Z,9.60
2023-02-21T09:20:42.343Z,13.60
2023-02-21T09:23:10.565Z,11.52
2023-02-21T09:25:38.135Z,8.73
2023-02-21T09:28:05.759Z,10.57
2023-02-21T09:30:33.408Z,11.43
2023-02-21T09:33:01.014Z,15.10
2023-02-21T09:35:30.845Z,20.48
2023-02-21T09:38:23.753Z,18.00
2023-02-21T09:41:01.601Z,13.25
2023-02-21T09:43:34.879Z,17.00
2023-02-21T09:46:09.349Z,16.15
2023-02-21T09:48:37.536Z,18.20
2023-02-21T09:51:09.017Z,14.55
2023-02-21T09:53:44.013Z,17.25
2023-02-21T09:56:30.925Z,11.60
2023-02-21T09:58:59.026Z,10.32
2023-02-21T10:01:35.847Z,12.98
2023-02-21T10:04:15.111Z,18.48
2023-02-21T10:06:45.550Z,20.60
2023-02-21T10:09:27.082Z,16.00
2023-02-21T10:12:09.992Z,22.13
2023-02-21T10:15:09.491Z,18.23
2023-02-21T10:17:54.832Z,10.77
2023-02-21T10:20:32.927Z,11.48
2023-02-21T10:23:03.882Z,9.93
2023-02-21T10:25:37.252Z,8.93
2023-02-21T10:28:05.343Z,14.20
2023-02-21T10:30:40.610Z,15.80
2023-02-21T10:33:09.153Z,8.80
2023-02-21T10:35:40.228Z,13.50
2023-02-21T10:38:14.497Z,12.90
2023-02-21T10:40:48.006Z,13.55
2023-02-21T10:43:38.360Z,8.60
2023-02-21T10:46:23.388Z,9.40
2023-02-21T10:48:59.761Z,14.30
2023-02-21T10:51:34.922Z,14.63
2023-02-21T10:54:24.964Z,12.85
2023-02-21T10:56:54.528Z,16.40
2023-02-21T10:59:32.637Z,12.38
2023-02-21T11:02:02.529Z,20.92
2023-02-21T11:04:35.486Z,14.32
2023-02-21T11:07:13.188Z,9.85
2023-02-21T11:09:46.621Z,9.73
2023-02-21T11:12:21.479Z,11.70
2023-02-21T11:14:52.161Z,9.07
2023-02-21T11:17:28.576Z,10.68
2023-02-21T11:20:16.894Z,13.23
2023-02-21T11:22:48.003Z,8.90
2023-02-21T11:25:30.241Z,13.77
2023-02-21T11:28:21.259Z,12.20
2023-02-21T11:31:11.806Z,12.07
2023-02-21T11:33:57.416Z,10.73
2023-02-21T11:36:41.381Z,12.30
2023-02-21T11:39:27.949Z,8.65
2023-02-21T11:42:06.890Z,9.52
2023-02-21T11:44:39.731Z,9.80
2023-02-21T11:47:18.849Z,5.13
2023-02-21T11:53:01.852Z,5.35
2023-02-21T11:55:29.903Z,4.90
2023-02-21T11:58:49.235Z,6.13
2023-02-21T12:01:28.892Z,4.95
2023-02-21T12:04:11.867Z,2.33
2023-02-21T12:07:26.673Z,3.97
2023-02-21T12:10:22.763Z,1.70
2023-02-21T12:13:06.970Z,3.53
2023-02-21T12:15:57.327Z,6.03
2023-02-21T12:18:49.892Z,3.35
2023-02-21T12:22:05.770Z,2.55
2023-02-21T12:24:56.277Z,3.10
2023-02-21T12:27:45.508Z,3.38
2023-02-21T12:30:36.532Z,8.63
2023-02-21T12:33:43.796Z,3.15
2023-02-21T12:36:45.776Z,4.22
2023-02-21T12:39:43.842Z,3.40
2023-02-21T12:43:04.547Z,3.97
2023-02-21T12:46:02.167Z,3.88
2023-02-21T12:48:50.172Z,3.25
2023-02-21T12:51:25.771Z,2.75
2023-02-21T12:54:21.838Z,4.25
2023-02-21T12:57:02.739Z,2.60
2023-02-21T13:00:17.339Z,2.58
2023-02-21T13:03:10.450Z,6.07
2023-02-21T13:05:51.185Z,2.25
2023-02-21T13:08:56.456Z,3.15
2023-02-21T13:11:54.588Z,3.80
2023-02-21T13:14:35.822Z,4.10
2023-02-21T13:17:03.311Z,2.33
2023-02-21T13:19:54.013Z,5.35
2023-02-21T13:23:39.851Z,2.40
2023-02-21T13:27:08.373Z,3.85
2023-02-21T13:29:41.148Z,2.05
2023-02-21T13:32:25.521Z,3.10
2023-02-21T13:35:07.574Z,1.48
2023-02-21T13:37:45.318Z,4.40
2023-02-21T13:40:35.527Z,4.83
2023-02-21T13:43:12.424Z,4.75
2023-02-21T13:45:41.277Z,2.80
2023-02-21T13:48:08.271Z,2.70
2023-02-21T13:50:38.734Z,5.90
2023-02-21T13:53:09.210Z,3.78
2023-02-21T13:55:38.273Z,2.13
2023-02-21T13:58:07.323Z,1.70
2023-02-21T14:00:34.891Z,0.68
2023-02-21T14:03:09.473Z,4.03
2023-02-21T14:05:50.138Z,0.90
2023-02-21T14:08:38.097Z,2.92
2023-02-21T14:11:05.305Z,0.60
2023-02-21T14:13:58.533Z,1.15
2023-02-21T14:16:54.352Z,1.83
2023-02-21T14:19:51.656Z,2.22
2023-02-21T14:22:28.482Z,3.45
2023-02-21T14:25:24.225Z,3.83
2023-02-21T14:27:55.600Z,2.38
2023-02-21T14:30:33.089Z,1.00
2023-02-21T14:33:25.634Z,4.97
2023-02-21T14:36:08.483Z,1.45
2023-02-21T14:38:43.205Z,5.50
2023-02-21T14:41:35.454Z,1.77
2023-02-21T14:44:38.082Z,5.28
2023-02-21T14:47:25.617Z,2.05
2023-02-21T14:50:17.728Z,1.10
2023-02-21T14:53:40.924Z,1.63
2023-02-21T14:56:20.807Z,1.40
2023-02-21T14:59:44.996Z,3.40
2023-02-21T15:02:42.620Z,1.95
2023-02-21T15:05:48.009Z,1.83
2023-02-21T15:08:25.713Z,2.65
2023-02-21T15:11:03.182Z,4.43
2023-02-21T15:13:35.423Z,0.50
2023-02-21T15:16:11.971Z,1.75
2023-02-21T15:19:00.211Z,4.10
2023-02-21T15:21:27.964Z,4.70
2023-02-21T15:24:28.322Z,2.17
2023-02-21T15:27:13.815Z,2.22
2023-02-21T15:29:41.823Z,7.05
2023-02-21T15:32:12.788Z,3.92
2023-02-21T15:34:45.879Z,4.40
2023-02-21T15:37:18.753Z,10.27
2023-02-21T15:40:04.258Z,7.35
2023-02-21T15:42:35.818Z,4.32
2023-02-21T15:45:38.147Z,3.00
2023-02-21T15:48:06.146Z,2.75
2023-02-21T15:50:44.473Z,6.45
2023-02-21T15:53:24.668Z,2.35
2023-02-21T15:55:54.778Z,3.88
2023-02-21T15:58:28.208Z,5.28
2023-02-21T16:01:10.034Z,1.80
2023-02-21T16:03:47.045Z,2.22
2023-02-21T16:06:31.932Z,1.70
2023-02-21T16:09:26.458Z,2.28
2023-02-21T16:12:01.584Z,4.28
2023-02-21T16:14:59.230Z,3.70
2023-02-21T16:17:38.467Z,1.77
2023-02-21T16:20:15.062Z,3.85
2023-02-21T16:23:06.791Z,3.42
2023-02-21T16:25:34.751Z,3.47
2023-02-21T16:28:06.341Z,5.05
2023-02-21T16:30:35.839Z,8.02
2023-02-21T16:33:05.885Z,3.38
2023-02-21T16:35:34.222Z,4.43
2023-02-21T16:38:02.071Z,3.22
2023-02-21T16:40:36.065Z,5.53
2023-02-21T16:43:05.080Z,4.22
2023-02-21T16:48:06.048Z,4.50
2023-02-21T16:50:40.267Z,5.55
2023-02-21T16:53:12.616Z,3.35
2023-02-21T16:55:42.514Z,2.53
2023-02-21T16:58:33.697Z,5.25
2023-02-21T17:01:08.842Z,5.65
2023-02-21T17:03:36.025Z,7.60
2023-02-21T17:06:04.600Z,9.52
2023-02-21T17:08:32.480Z,5.82
2023-02-21T17:11:00.053Z,5.18
2023-02-21T17:13:27.305Z,6.38
2023-02-21T17:15:54.918Z,4.82
2023-02-21T17:18:22.278Z,7.00
2023-02-21T17:20:49.479Z,14.35
2023-02-21T17:23:18.102Z,10.98
2023-02-21T17:25:45.408Z,7.75
2023-02-21T17:28:12.590Z,15.75
2023-02-21T17:30:39.757Z,11.68
2023-02-21T17:33:08.254Z,12.30
2023-02-21T17:35:35.574Z,16.40
2023-02-21T17:38:03.936Z,14.05
2023-02-21T17:40:31.402Z,8.45
2023-02-21T17:42:58.910Z,13.82
2023-02-21T17:45:26.663Z,10.43
2023-02-21T17:47:57.422Z,15.18
2023-02-21T17:50:25.615Z,13.18
2023-02-21T17:52:52.857Z,14.60
2023-02-21T17:55:30.140Z,10.85
2023-02-21T17:57:57.902Z,11.25
2023-02-21T18:00:29.212Z,16.85
2023-02-21T18:02:57.141Z,17.80
2023-02-21T18:05:24.517Z,15.88
2023-02-21T18:07:54.480Z,15.68
2023-02-21T18:10:25.828Z,16.33
2023-02-21T18:12:54.054Z,10.35
2023-02-21T18:15:28.093Z,9.43
2023-02-21T18:17:56.170Z,10.30
2023-02-21T18:20:24.758Z,8.75
2023-02-21T18:22:52.014Z,8.60
2023-02-21T18:25:21.381Z,8.52
2023-02-21T18:27:48.682Z,9.10
2023-02-21T18:30:19.173Z,12.10
2023-02-21T18:32:47.212Z,11.90
2023-02-21T18:35:18.948Z,8.53
2023-02-21T18:37:48.485Z,13.57
2023-02-21T18:40:18.904Z,12.80
2023-02-21T18:42:47.777Z,13.32
2023-02-21T18:45:18.449Z,10.38
2023-02-21T18:47:45.900Z,9.88
2023-02-21T18:50:13.365Z,10.93
2023-02-21T18:52:40.563Z,17.95
2023-02-21T18:55:08.114Z,13.13
2023-02-21T18:57:35.270Z,14.38
2023-02-21T19:00:06.943Z,12.05
2023-02-21T19:02:37.188Z,14.93
2023-02-21T19:05:04.810Z,13.63
2023-02-21T19:07:36.330Z,15.40
2023-02-21T19:10:04.886Z,13.27
2023-02-21T19:12:32.213Z,16.85
2023-02-21T19:14:59.391Z,17.15
2023-02-21T19:17:26.569Z,14.43
2023-02-21T19:19:53.812Z,18.67
2023-02-21T19:22:21.530Z,17.42
2023-02-21T19:24:48.812Z,13.77
2023-02-21T19:27:16.273Z,16.50
2023-02-21T19:29:43.957Z,18.05
2023-02-21T19:32:11.750Z,18.23
2023-02-21T19:34:39.029Z,20.42
2023-02-21T19:37:06.799Z,20.10
2023-02-21T19:39:34.018Z,24.75
2023-02-21T19:42:01.143Z,17.35
2023-02-21T19:44:29.808Z,14.75
2023-02-21T19:46:57.805Z,16.05
2023-02-21T19:49:25.248Z,20.63
2023-02-21T19:51:55.524Z,16.60
2023-02-21T19:54:26.958Z,19.45
2023-02-21T19:56:54.150Z,14.55
2023-02-21T19:59:21.761Z,14.70
2023-02-21T20:01:48.939Z,13.68
2023-02-21T20:04:18.568Z,18.70
2023-02-21T20:06:52.300Z,17.02
2023-02-21T20:09:19.498Z,16.38
2023-02-21T20:11:46.675Z,18.70
2023-02-21T20:14:14.627Z,14.98
2023-02-21T20:16:43.993Z,22.83
2023-02-21T20:19:13.224Z,18.35
2023-02-21T20:21:42.345Z,16.70
2023-02-21T20:24:10.852Z,19.48
2023-02-21T20:26:38.757Z,15.05
2023-02-21T20:29:06.243Z,18.23
2023-02-21T20:31:37.364Z,18.85
2023-02-21T20:34:06.900Z,23.13
2023-02-21T20:36:42.524Z,16.42
2023-02-21T20:39:29.067Z,19.40
2023-02-21T20:41:59.512Z,22.55
2023-02-21T20:44:28.438Z,18.00
2023-02-21T20:46:58.764Z,26.33
2023-02-21T20:49:26.484Z,21.65
2023-02-21T20:51:53.954Z,20.27
2023-02-21T20:54:22.639Z,20.90
2023-02-21T20:56:54.756Z,17.65
2023-02-21T20:59:35.412Z,17.15
2023-02-21T21:02:04.861Z,19.08
2023-02-21T21:04:40.553Z,19.00
2023-02-21T21:07:20.099Z,15.30
2023-02-21T21:09:49.716Z,18.65
2023-02-21T21:12:23.100Z,14.15
2023-02-21T21:14:55.442Z,16.98
2023-02-21T21:17:22.828Z,13.93
2023-02-21T21:19:51.017Z,16.58
2023-02-21T21:22:23.630Z,12.65
2023-02-21T21:24:52.457Z,19.30
2023-02-21T21:27:21.614Z,17.55
2023-02-21T21:32:22.750Z,16.77
2023-02-21T21:34:54.635Z,15.57
2023-02-21T21:37:30.687Z,12.93
2023-02-21T21:39:58.342Z,13.75
2023-02-21T21:42:33.482Z,13.25
2023-02-21T21:45:01.072Z,16.63
2023-02-21T21:47:37.181Z,12.05
2023-02-21T21:50:06.151Z,13.05
2023-02-21T21:52:33.515Z,14.75
2023-02-21T21:55:00.760Z,16.00
2023-02-21T21:57:28.422Z,11.55
2023-02-21T21:59:56.169Z,16.92
2023-02-21T22:02:23.561Z,15.50
2023-02-21T22:04:53.413Z,13.85
2023-02-21T22:07:20.884Z,16.65
2023-02-21T22:09:48.233Z,17.80
2023-02-21T22:12:18.985Z,17.10
2023-02-21T22:14:46.201Z,19.67
2023-02-21T22:17:13.482Z,15.68
2023-02-21T22:19:40.643Z,11.48
2023-02-21T22:22:08.305Z,15.07
2023-02-21T22:24:35.937Z,15.45
2023-02-21T22:27:03.510Z,14.43
2023-02-21T22:29:31.636Z,16.70
2023-02-21T22:31:58.950Z,14.88
2023-02-21T22:34:26.275Z,17.88
2023-02-21T22:36:57.707Z,13.38
2023-02-21T22:39:30.365Z,17.02
2023-02-21T22:41:57.577Z,17.65
2023-02-21T22:44:25.270Z,16.15
2023-02-21T22:47:00.405Z,15.40
2023-02-21T22:49:28.944Z,15.60
2023-02-21T22:51:57.475Z,19.55
2023-02-21T22:54:26.455Z,18.55
2023-02-21T22:57:00.354Z,14.75
2023-02-21T22:59:27.556Z,16.45
2023-02-21T23:01:58.290Z,18.77
2023-02-21T23:04:26.348Z,16.60
2023-02-21T23:06:57.050Z,13.48
2023-02-21T23:09:28.152Z,20.83
2023-02-21T23:12:00.145Z,14.07
2023-02-21T23:14:31.779Z,17.05
2023-02-21T23:16:59.550Z,14.07
2023-02-21T23:19:30.132Z,10.38
2023-02-21T23:21:58.043Z,11.43
2023-02-21T23:24:26.182Z,16.48
2023-02-21T23:26:54.509Z,16.05
2023-02-21T23:29:25.738Z,16.77
2023-02-21T23:31:57.616Z,16.63
2023-02-21T23:34:40.403Z,18.13
2023-02-21T23:37:12.514Z,19.27
2023-02-21T23:39:46.568Z,17.73
2023-02-21T23:42:17.674Z,17.67
2023-02-21T23:44:45.097Z,12.50
2023-02-21T23:47:19.005Z,16.45
2023-02-21T23:49:46.401Z,12.57
2023-02-21T23:52:13.585Z,16.75
2023-02-21T23:54:40.681Z,18.42
2023-02-21T23:57:07.852Z,12.07
2023-02-21T23:59:35.345Z,11.90
